Terminal Aerodrome Forecast
Issued by NWS

Home | Current Version | Previous Version | Text Only | Print | Product List | Glossary Off
Versions: 1 2 3 4 5 6 7 8 9 10 11 12 13 14 15 16 17 18 19

000
FTUS43 KMPX 132100 AAB
TAFAXN
TAF AMD
KAXN 132101Z 1321/1418 35019G25KT P6SM SCT025 BKN250
      TEMPO 1321/1324 BKN025
     FM140000 35016G28KT P6SM BKN035
     FM141200 33012G20KT P6SM FEW250=

USA.gov is the U.S. government's official web portal to all federal, state and local government web resources and services.